• Join FlightAware (Why Join?)
  • Login
  • US Flag 
10:38AM EDT


 

Airport Tracker/Info


-or-


 

Live Flight TrackerFlight Track Log ✈ FLG3627 ✈ 23-Jun-2013 ✈ KDTW - KSAW

Flight Track Log - Related Links

Times and Time Zones

All times are in EDT time to prevent confusion due to time zone crossing. See the FLG3627 flight status page for this flight to view local times or setup timezone preferences in your user account.

Time Position Orientation Groundspeed Altitude Reporting Facility
EDT Latitude Longitude Course Direction KTS MPH feet Rate Location/Type
05:19PM 42.1994 -83.3581 North 145 167 1,400  Level Cleveland Center
05:20PM 42.1822 -83.3853 230° Southwest 192 221 2,100 1,740 Climbing Cleveland Center
05:21PM 42.1433 -83.4425 228° Southwest 222 255 4,300 2,220 Climbing Cleveland Center
05:22PM 42.5213 -83.3500 North  Level FlightAware Approximate
05:22PM 42.1225 -83.5228 251° West 258 297 6,700  Level Cleveland Center
05:23PM 42.6284 -83.3500 North  Level FlightAware Approximate
05:23PM 42.1878 -83.5733 330° Northwest 288 331 8,900  Level Cleveland Center
05:24PM 42.7355 -83.3500 North  Level FlightAware Approximate
05:24PM 42.2494 -83.6128 335° Northwest 295 339 10,600  Level Cleveland Center
05:25PM 42.8426 -83.3500 North  Level FlightAware Approximate
05:25PM 42.3347 -83.6197 357° North 374 430 11,600  Level Cleveland Center
05:26PM 42.4275 -83.5792 18° North 369 425 13,100 1,620 Climbing Cleveland Center
05:27PM 42.5264 -83.5358 18° North 364 419 14,900 1,500 Climbing Cleveland Center
05:28PM 42.6278 -83.4928 17° North 364 419 16,200 1,320 Climbing Cleveland Center
05:29PM 42.7247 -83.4519 17° North 369 425 17,600 1,020 Climbing Cleveland Center
05:30PM 42.8300 -83.4058 18° North 376 433 18,300 660 Climbing Cleveland Center
05:31PM 42.9414 -83.3683 14° North 391 450 19,000 780 Climbing Cleveland Center
05:32PM 43.0578 -83.3764 357° North 410 472 19,900 960 Climbing Cleveland Center
05:33PM 43.1450 -83.4769 320° Northwest 373 429 21,000 1,080 Climbing Cleveland Center
05:34PM 43.2214 -83.5917 312° West 387 445 22,100 1,080 Climbing Cleveland Center
05:35PM 43.2953 -83.7067 311° West 396 456 23,200 1,020 Climbing Cleveland Center
05:36PM 43.3694 -83.8217 312° West 396 456 24,200 720 Climbing Cleveland Center
05:37PM 43.4433 -83.9411 310° West 401 461 24,900 540 Climbing Minneapolis Center
05:38PM 43.5189 -84.0586 312° West 407 468 25,500 480 Climbing Minneapolis Center
05:39PM 43.6186 -84.1897 316° Northwest 413 475 26,000 240 Climbing Minneapolis Center
05:40PM 43.7089 -84.3017 318° Northwest 427 491 26,000  Level Minneapolis Center
05:41PM 43.7994 -84.4178 317° Northwest 440 506 26,000  Level Minneapolis Center
05:42PM 43.8917 -84.5333 318° Northwest 447 514 26,000  Level Minneapolis Center
05:43PM 43.9842 -84.6514 317° Northwest 452 520 26,000  Level Minneapolis Center
05:44PM 44.0806 -84.7764 317° Northwest 450 518 26,000  Level Minneapolis Center
05:45PM 44.1908 -84.9189 317° Northwest 451 519 26,000  Level Minneapolis Center
05:46PM 44.2819 -85.0375 317° Northwest 450 518 26,000  Level Minneapolis Center
05:47PM 44.3917 -85.1808 317° Northwest 451 519 26,000  Level Minneapolis Center
05:49PM 44.4662 -85.2804 316° Northwest  Level FlightAware Approximate
05:49PM 44.5725 -85.4203 316° Northwest 449 517 26,000  Level Minneapolis Center
05:51PM 44.6636 -85.5406 317° Northwest 450 518 26,000  Level Minneapolis Center
05:52PM 44.7756 -85.6608 323° Northwest 450 518 26,000  Level Minneapolis Center
05:53PM 44.8769 -85.7692 323° Northwest 455 524 26,000  Level Minneapolis Center
05:54PM 44.9769 -85.8744 323° Northwest 454 522 26,000  Level Minneapolis Center
05:55PM 45.0950 -86.0025 323° Northwest 449 517 26,000 -300 Level Minneapolis Center
05:56PM 45.2156 -86.1319 323° Northwest 449 517 25,500 -720 Descending Minneapolis Center
05:57PM 45.3172 -86.2411 323° Northwest 456 525 24,600 -960 Descending Minneapolis Center
05:58PM 45.4211 -86.3553 322° Northwest 469 540 23,600 -1,140 Descending Minneapolis Center
05:59PM 45.5208 -86.4625 323° Northwest 458 527 22,300 -1,980 Descending Minneapolis Center
06:00PM 45.6147 -86.5642 323° Northwest 432 497 19,600 -2,760 Descending Minneapolis Center
06:01PM 45.7039 -86.6603 323° Northwest 409 471 16,700 -3,000 Descending Minneapolis Center
06:02PM 45.8028 -86.7669 323° Northwest 376 433 13,500 -2,700 Descending Minneapolis Center
06:03PM 45.8806 -86.8581 321° Northwest 356 410 11,200 -1,560 Descending Minneapolis Center
06:04PM 45.9508 -86.9364 322° Northwest 300 345 10,300 -1,020 Descending Minneapolis Center
06:05PM 46.0119 -87.0044 322° Northwest 277 319 9,200 -1,140 Descending Minneapolis Center
06:06PM 46.0781 -87.0797 322° Northwest 277 319 8,000 -1,140 Descending Minneapolis Center
06:07PM 46.1397 -87.1489 322° Northwest 279 321 6,900 -1,080 Descending Minneapolis Center
06:08PM 46.2008 -87.2186 322° Northwest 277 319 5,800 -1,440 Descending Minneapolis Center
06:09PM 46.2636 -87.2853 324° Northwest 275 316 4,000 -1,020 Descending Minneapolis Center
06:10PM 46.3381 -87.3111 347° North 271 312 3,700 -540 Descending Minneapolis Center
06:11PM 46.4178 -87.3267 352° North 269 310 3,000 -720 Descending Minneapolis Center